createdAt,value
2018-05-08T00:00:06.491Z,51.14
2018-05-08T00:02:32.412Z,51.38
2018-05-08T00:04:58.338Z,51.79
2018-05-08T00:07:25.998Z,52.19
2018-05-08T00:09:51.896Z,52.25
2018-05-08T00:12:21.037Z,52.42
2018-05-08T00:14:48.063Z,52.47
2018-05-08T00:17:14.994Z,52.10
2018-05-08T00:19:40.878Z,52.14
2018-05-08T00:22:10.131Z,52.36
2018-05-08T00:24:36.005Z,52.93
2018-05-08T00:27:04.273Z,52.94
2018-05-08T00:29:30.227Z,52.94
2018-05-08T00:31:59.378Z,52.94
2018-05-08T00:34:25.319Z,53.28
2018-05-08T00:36:51.224Z,53.00
2018-05-08T00:39:17.122Z,53.16
2018-05-08T00:41:43.052Z,53.24
2018-05-08T00:44:10.594Z,53.08
2018-05-08T00:46:36.489Z,52.93
2018-05-08T00:49:05.951Z,52.99
2018-05-08T00:51:31.873Z,53.32
2018-05-08T00:54:01.771Z,53.49
2018-05-08T00:56:27.654Z,53.58
2018-05-08T00:58:54.596Z,53.09
2018-05-08T01:01:20.516Z,53.28
2018-05-08T01:03:49.352Z,51.95
2018-05-08T01:06:15.411Z,51.11
2018-05-08T01:08:44.801Z,50.67
2018-05-08T01:11:10.710Z,49.73
2018-05-08T01:13:36.687Z,49.22
2018-05-08T01:16:02.612Z,48.66
2018-05-08T01:18:28.523Z,48.42
2018-05-08T01:20:57.710Z,48.15
2018-05-08T01:23:23.579Z,47.87
2018-05-08T01:25:50.836Z,47.73
2018-05-08T01:28:16.752Z,47.91
2018-05-08T01:30:45.160Z,47.87
2018-05-08T01:33:11.052Z,47.67
2018-05-08T01:35:41.660Z,47.36
2018-05-08T01:38:07.563Z,47.16
2018-05-08T01:40:35.304Z,47.13
2018-05-08T01:43:01.261Z,47.18
2018-05-08T01:45:30.479Z,47.00
2018-05-08T01:47:56.381Z,46.86
2018-05-08T01:50:22.301Z,46.67
2018-05-08T01:52:48.311Z,46.46
2018-05-08T01:55:14.234Z,46.46
2018-05-08T01:57:41.752Z,46.18
2018-05-08T02:00:07.694Z,46.33
2018-05-08T02:02:37.304Z,46.44
2018-05-08T02:05:03.192Z,46.63
2018-05-08T02:07:30.526Z,46.54
2018-05-08T02:09:56.452Z,46.55
2018-05-08T02:12:25.591Z,46.38
2018-05-08T02:14:52.008Z,46.47
2018-05-08T02:17:21.766Z,46.38
2018-05-08T02:19:47.679Z,46.49
2018-05-08T02:22:14.727Z,46.49
2018-05-08T02:24:40.625Z,46.32
2018-05-08T02:27:06.497Z,46.08
2018-05-08T02:29:32.383Z,46.06
2018-05-08T02:31:58.279Z,46.25
2018-05-08T02:34:26.777Z,46.20
2018-05-08T02:36:52.675Z,46.32
2018-05-08T02:39:21.993Z,46.31
2018-05-08T02:41:47.859Z,46.33
2018-05-08T02:44:17.395Z,46.58
2018-05-08T02:46:43.281Z,46.44
2018-05-08T02:49:12.367Z,46.12
2018-05-08T02:51:38.304Z,46.06
2018-05-08T02:54:05.436Z,46.22
2018-05-08T02:56:31.347Z,46.18
2018-05-08T02:59:00.548Z,46.40
2018-05-08T03:01:26.436Z,46.26
2018-05-08T03:03:52.333Z,46.27
2018-05-08T03:06:18.278Z,46.08
2018-05-08T03:08:44.195Z,47.79
2018-05-08T03:11:11.946Z,49.33
2018-05-08T03:13:37.891Z,50.30
2018-05-08T03:16:06.597Z,51.22
2018-05-08T03:18:32.502Z,52.47
2018-05-08T03:21:01.674Z,53.34
2018-05-08T03:23:27.591Z,54.77
2018-05-08T03:25:56.855Z,56.55
2018-05-08T03:28:22.739Z,57.79
2018-05-08T03:30:52.070Z,58.48
2018-05-08T03:33:18.051Z,58.85
2018-05-08T03:35:45.523Z,58.78
2018-05-08T03:38:11.433Z,58.84
2018-05-08T03:40:37.391Z,58.83
2018-05-08T03:43:03.286Z,58.71
2018-05-08T03:45:29.180Z,58.39
2018-05-08T03:47:58.110Z,58.49
2018-05-08T03:50:24.069Z,58.42
2018-05-08T03:52:53.491Z,58.44
2018-05-08T03:55:19.365Z,58.60
2018-05-08T03:57:46.585Z,59.90
2018-05-08T04:00:24.822Z,60.25
2018-05-08T04:03:03.047Z,61.06
2018-05-08T04:05:41.352Z,62.26
2018-05-08T04:08:19.717Z,62.01
2018-05-08T04:10:45.538Z,61.70
2018-05-08T04:13:11.471Z,61.08
2018-05-08T04:15:37.399Z,61.34
2018-05-08T04:18:03.319Z,60.59
2018-05-08T04:20:29.202Z,60.51
2018-05-08T04:22:55.113Z,59.71
2018-05-08T04:25:21.024Z,59.22
2018-05-08T04:27:46.940Z,59.29
2018-05-08T04:30:12.795Z,59.08
2018-05-08T04:32:38.694Z,58.96
2018-05-08T04:35:04.589Z,57.48
2018-05-08T04:37:30.495Z,56.82
2018-05-08T04:39:56.377Z,56.58
2018-05-08T04:42:22.318Z,57.17
2018-05-08T04:44:48.214Z,56.88
2018-05-08T04:47:14.123Z,56.84
2018-05-08T04:49:39.991Z,56.69
2018-05-08T04:52:05.933Z,57.53
2018-05-08T04:54:31.850Z,57.83
2018-05-08T04:56:57.744Z,56.94
2018-05-08T04:59:23.603Z,56.51
2018-05-08T05:01:49.499Z,55.36
2018-05-08T05:04:15.396Z,54.83
2018-05-08T05:06:41.311Z,54.25
2018-05-08T05:09:07.217Z,55.53
2018-05-08T05:11:33.107Z,55.27
2018-05-08T05:13:59.101Z,54.88
2018-05-08T05:16:25.011Z,55.27
2018-05-08T05:18:50.893Z,55.84
2018-05-08T05:21:16.883Z,57.83
2018-05-08T05:23:42.780Z,59.07
2018-05-08T05:26:08.721Z,57.85
2018-05-08T05:28:34.622Z,57.72
2018-05-08T05:31:00.527Z,57.96
2018-05-08T05:33:26.422Z,57.87
2018-05-08T05:35:52.310Z,56.34
2018-05-08T05:38:18.230Z,54.59
2018-05-08T05:40:44.096Z,52.95
2018-05-08T05:43:09.946Z,51.43
2018-05-08T05:45:35.840Z,50.51
2018-05-08T05:48:02.396Z,49.62
2018-05-08T05:50:28.332Z,48.85
2018-05-08T05:52:57.493Z,49.34
2018-05-08T05:55:23.416Z,48.79
2018-05-08T05:57:52.647Z,48.67
2018-05-08T06:00:18.540Z,49.20
2018-05-08T06:02:46.416Z,48.15
2018-05-08T06:05:12.405Z,48.17
2018-05-08T06:07:38.311Z,46.46
2018-05-08T06:10:04.187Z,46.60
2018-05-08T06:12:30.091Z,45.88
2018-05-08T06:15:00.630Z,46.46
2018-05-08T06:17:26.522Z,45.30
2018-05-08T06:19:53.179Z,45.39
2018-05-08T06:22:19.088Z,45.13
2018-05-08T06:24:48.346Z,43.92
2018-05-08T06:27:14.221Z,44.77
2018-05-08T06:29:43.549Z,44.46
2018-05-08T06:32:09.437Z,44.95
2018-05-08T06:34:38.887Z,44.62
2018-05-08T06:37:04.773Z,44.11
2018-05-08T06:39:31.947Z,43.38
2018-05-08T06:41:57.838Z,43.10
2018-05-08T06:44:23.788Z,43.55
2018-05-08T06:46:49.634Z,43.36
2018-05-08T06:49:15.577Z,42.52
2018-05-08T06:51:45.322Z,43.07
2018-05-08T06:54:11.253Z,43.24
2018-05-08T06:56:38.205Z,41.73
2018-05-08T06:59:04.096Z,42.18
2018-05-08T07:01:33.036Z,42.31
2018-05-08T07:03:58.936Z,42.17
2018-05-08T07:06:28.550Z,42.00
2018-05-08T07:08:55.356Z,40.65
2018-05-08T07:11:22.315Z,42.55
2018-05-08T07:13:48.209Z,41.21
2018-05-08T07:16:17.462Z,40.71
2018-05-08T07:18:43.205Z,40.48
2018-05-08T07:21:09.091Z,38.98
2018-05-08T07:23:35.016Z,38.31
2018-05-08T07:26:00.903Z,39.19
2018-05-08T07:28:30.239Z,38.75
2018-05-08T07:30:56.169Z,38.09
2018-05-08T07:33:23.572Z,37.60
2018-05-08T07:35:49.450Z,38.21
2018-05-08T07:38:18.750Z,37.38
2018-05-08T07:40:44.647Z,36.75
2018-05-08T07:43:13.936Z,36.29
2018-05-08T07:45:39.895Z,37.33
2018-05-08T07:48:09.271Z,37.48
2018-05-08T07:50:35.179Z,35.92
2018-05-08T07:53:02.471Z,36.50
2018-05-08T07:55:28.329Z,37.76
2018-05-08T07:57:54.220Z,37.23
2018-05-08T08:00:20.149Z,34.74
2018-05-08T08:02:46.067Z,34.88
2018-05-08T08:05:15.242Z,37.57
2018-05-08T08:07:41.154Z,34.84
2018-05-08T08:10:08.726Z,34.67
2018-05-08T08:12:34.639Z,35.54
2018-05-08T08:15:03.502Z,35.08
2018-05-08T08:17:29.425Z,34.14
2018-05-08T08:19:58.293Z,35.17
2018-05-08T08:22:24.200Z,33.98
2018-05-08T08:24:53.157Z,32.96
2018-05-08T08:27:19.028Z,31.47
2018-05-08T08:29:47.973Z,32.17
2018-05-08T08:32:13.816Z,32.10
2018-05-08T08:34:39.719Z,32.12
2018-05-08T08:37:05.595Z,31.38
2018-05-08T08:39:31.468Z,32.04
2018-05-08T08:41:59.332Z,33.08
2018-05-08T08:44:25.247Z,31.75
2018-05-08T08:46:53.961Z,30.85
2018-05-08T08:49:19.873Z,31.37
2018-05-08T08:51:48.764Z,31.70
2018-05-08T08:54:14.646Z,32.34
2018-05-08T08:56:44.544Z,32.53
2018-05-08T08:59:10.451Z,33.60
2018-05-08T09:01:39.351Z,31.44
2018-05-08T09:04:05.306Z,32.50
2018-05-08T09:06:33.145Z,30.21
2018-05-08T09:08:59.016Z,29.01
2018-05-08T09:11:24.878Z,29.29
2018-05-08T09:13:50.803Z,30.18
2018-05-08T09:16:16.695Z,29.07
2018-05-08T09:18:46.572Z,28.37
2018-05-08T09:21:12.442Z,29.70
2018-05-08T09:23:39.500Z,28.62
2018-05-08T09:26:05.401Z,28.38
2018-05-08T09:28:34.357Z,27.56
2018-05-08T09:31:00.263Z,28.09
2018-05-08T09:33:28.674Z,26.99
2018-05-08T09:35:54.575Z,27.58
2018-05-08T09:38:23.943Z,27.93
2018-05-08T09:40:49.812Z,25.88
2018-05-08T09:43:18.965Z,26.08
2018-05-08T09:45:44.895Z,27.51
2018-05-08T09:48:10.812Z,29.56
2018-05-08T09:50:36.691Z,29.30
2018-05-08T09:53:02.569Z,27.48
2018-05-08T09:55:29.824Z,27.68
2018-05-08T09:57:55.765Z,27.25
2018-05-08T10:00:24.579Z,28.20
2018-05-08T10:02:50.497Z,27.84
2018-05-08T10:05:23.256Z,29.04
2018-05-08T10:07:49.144Z,27.57
2018-05-08T10:10:15.056Z,25.71
2018-05-08T10:12:41.015Z,26.37
2018-05-08T10:15:23.151Z,26.10
2018-05-08T10:17:49.064Z,26.46
2018-05-08T10:20:14.996Z,25.24
2018-05-08T10:22:40.903Z,24.62
2018-05-08T10:25:06.790Z,25.40
2018-05-08T10:27:32.711Z,24.09
2018-05-08T10:29:58.628Z,25.25
2018-05-08T10:32:24.519Z,23.90
2018-05-08T10:34:50.410Z,27.29
2018-05-08T10:37:16.351Z,26.30
2018-05-08T10:39:42.288Z,25.72
2018-05-08T10:42:08.197Z,24.78
2018-05-08T10:44:34.104Z,25.00
2018-05-08T10:47:00.040Z,23.57
2018-05-08T10:49:25.931Z,23.76
2018-05-08T10:51:55.129Z,23.87
2018-05-08T10:54:21.036Z,22.71
2018-05-08T10:56:50.533Z,23.70
2018-05-08T10:59:16.451Z,24.73
2018-05-08T11:01:42.487Z,24.03
2018-05-08T11:04:08.306Z,24.61
2018-05-08T11:06:34.210Z,23.30
2018-05-08T11:09:00.735Z,24.65
2018-05-08T11:11:26.638Z,23.32
2018-05-08T11:13:56.495Z,21.99
2018-05-08T11:16:22.426Z,22.08
2018-05-08T11:18:50.482Z,19.39
2018-05-08T11:21:16.423Z,22.61
2018-05-08T11:23:45.329Z,21.05
2018-05-08T11:26:11.216Z,20.04
2018-05-08T11:28:40.451Z,22.65
2018-05-08T11:31:06.382Z,22.54
2018-05-08T11:33:35.746Z,23.64
2018-05-08T11:36:01.643Z,22.57
2018-05-08T11:38:27.566Z,20.84
2018-05-08T11:40:53.477Z,20.74
2018-05-08T11:43:19.393Z,20.99
2018-05-08T11:45:45.943Z,21.14
2018-05-08T11:48:11.851Z,22.33
2018-05-08T11:50:40.608Z,20.94
2018-05-08T11:53:06.545Z,22.08
2018-05-08T11:55:35.509Z,22.15
2018-05-08T11:58:01.431Z,21.92
2018-05-08T12:00:31.278Z,21.33
2018-05-08T12:02:57.167Z,20.44
2018-05-08T12:05:26.644Z,20.35
2018-05-08T12:07:52.591Z,20.91
2018-05-08T12:10:19.540Z,20.09
2018-05-08T12:12:45.431Z,18.62
2018-05-08T12:15:11.365Z,20.33
2018-05-08T12:17:37.304Z,20.83
2018-05-08T12:20:03.255Z,19.26
2018-05-08T12:22:31.185Z,18.71
2018-05-08T12:24:57.095Z,18.10
2018-05-08T12:27:25.960Z,19.36
2018-05-08T12:29:51.909Z,20.95
2018-05-08T12:32:20.781Z,19.20
2018-05-08T12:34:46.725Z,19.90
2018-05-08T12:37:16.263Z,18.60
2018-05-08T12:39:42.178Z,18.34
2018-05-08T12:42:10.175Z,19.01
2018-05-08T12:44:36.116Z,18.90
2018-05-08T12:47:05.951Z,19.62
2018-05-08T12:49:31.895Z,20.83
2018-05-08T12:51:57.817Z,19.72
2018-05-08T12:54:23.753Z,19.00
2018-05-08T12:56:49.667Z,18.81
2018-05-08T12:59:16.623Z,19.37
2018-05-08T13:01:42.522Z,17.49
2018-05-08T13:04:11.435Z,18.62
2018-05-08T13:06:37.336Z,17.71
2018-05-08T13:09:06.957Z,18.32
2018-05-08T13:11:32.864Z,16.69
2018-05-08T13:14:01.150Z,17.38
2018-05-08T13:16:27.099Z,17.03
2018-05-08T13:18:56.055Z,17.62
2018-05-08T13:21:21.967Z,18.89
2018-05-08T13:23:51.076Z,19.37
2018-05-08T13:26:16.966Z,19.44
2018-05-08T13:28:42.851Z,17.35
2018-05-08T13:31:08.904Z,17.36
2018-05-08T13:33:34.706Z,17.45
2018-05-08T13:36:01.972Z,17.99
2018-05-08T13:38:27.957Z,18.43
2018-05-08T13:40:57.252Z,18.45
2018-05-08T13:43:23.170Z,18.07
2018-05-08T13:45:52.295Z,17.69
2018-05-08T13:48:18.252Z,17.56
2018-05-08T13:50:47.648Z,17.29
2018-05-08T13:53:13.532Z,17.07
2018-05-08T13:55:40.932Z,16.85
2018-05-08T13:58:06.833Z,16.01
2018-05-08T14:00:35.779Z,16.90
2018-05-08T14:03:01.695Z,17.50
2018-05-08T14:05:27.629Z,18.11
2018-05-08T14:07:53.563Z,17.64
2018-05-08T14:10:19.496Z,17.76
2018-05-08T14:12:48.842Z,16.29
2018-05-08T14:15:14.756Z,17.71
2018-05-08T14:17:43.799Z,15.72
2018-05-08T14:20:09.748Z,17.24
2018-05-08T14:22:36.867Z,16.81
2018-05-08T14:25:02.764Z,16.03
2018-05-08T14:27:31.991Z,16.23
2018-05-08T14:29:57.966Z,17.10
2018-05-08T14:32:27.047Z,18.07
2018-05-08T14:34:53.149Z,18.55
2018-05-08T14:37:22.308Z,17.41
2018-05-08T14:39:48.272Z,16.96
2018-05-08T14:42:14.156Z,16.45
2018-05-08T14:44:40.163Z,16.66
2018-05-08T14:47:06.074Z,16.09
2018-05-08T14:49:33.036Z,16.19
2018-05-08T14:51:58.928Z,16.58
2018-05-08T14:54:28.138Z,17.00
2018-05-08T14:56:54.061Z,17.00
2018-05-08T14:59:23.030Z,16.84
2018-05-08T15:01:48.979Z,16.95
2018-05-08T15:04:16.866Z,16.44
2018-05-08T15:06:42.796Z,16.23
2018-05-08T15:09:11.877Z,15.96
2018-05-08T15:11:37.845Z,16.60
2018-05-08T15:14:07.796Z,16.33
2018-05-08T15:16:33.743Z,15.84
2018-05-08T15:18:59.639Z,15.81
2018-05-08T15:21:25.528Z,17.55
2018-05-08T15:23:51.431Z,17.48
2018-05-08T15:26:18.190Z,16.17
2018-05-08T15:28:44.080Z,17.44
2018-05-08T15:31:13.770Z,17.88
2018-05-08T15:33:39.687Z,18.07
2018-05-08T15:36:08.880Z,17.26
2018-05-08T15:38:34.793Z,17.27
2018-05-08T15:41:02.740Z,17.92
2018-05-08T15:43:28.663Z,16.94
2018-05-08T15:45:57.647Z,16.68
2018-05-08T15:48:23.552Z,17.62
2018-05-08T15:50:52.573Z,17.72
2018-05-08T15:53:18.493Z,17.57
2018-05-08T15:55:44.370Z,17.55
2018-05-08T15:58:10.292Z,18.52
2018-05-08T16:00:36.200Z,18.12
2018-05-08T16:03:03.103Z,17.93
2018-05-08T16:05:29.015Z,18.44
2018-05-08T16:07:57.917Z,17.62
2018-05-08T16:10:23.795Z,18.02
2018-05-08T16:12:53.532Z,18.18
2018-05-08T16:15:19.399Z,18.50
2018-05-08T16:17:48.456Z,17.40
2018-05-08T16:20:14.408Z,18.35
2018-05-08T16:22:42.106Z,18.43
2018-05-08T16:25:08.000Z,18.88
2018-05-08T16:27:37.927Z,19.12
2018-05-08T16:30:03.875Z,19.62
2018-05-08T16:32:29.771Z,19.00
2018-05-08T16:34:55.739Z,19.35
2018-05-08T16:37:21.662Z,19.33
2018-05-08T16:39:48.960Z,19.51
2018-05-08T16:42:14.883Z,19.13
2018-05-08T16:44:44.633Z,19.00
2018-05-08T16:47:10.535Z,19.94
2018-05-08T16:49:39.547Z,20.00
2018-05-08T16:52:05.463Z,19.11
2018-05-08T16:54:34.434Z,20.02
2018-05-08T16:57:00.339Z,19.39
2018-05-08T16:59:27.424Z,19.70
2018-05-08T17:01:53.303Z,19.83
2018-05-08T17:04:22.255Z,20.77
2018-05-08T17:06:48.155Z,20.10
2018-05-08T17:09:14.081Z,21.17
2018-05-08T17:11:40.006Z,21.10
2018-05-08T17:14:05.987Z,21.34
2018-05-08T17:16:35.607Z,21.37
2018-05-08T17:19:01.535Z,21.51
2018-05-08T17:21:28.657Z,21.33
2018-05-08T17:23:54.533Z,20.95
2018-05-08T17:26:23.897Z,21.38
2018-05-08T17:28:49.807Z,21.22
2018-05-08T17:31:18.989Z,22.35
2018-05-08T17:33:44.881Z,22.02
2018-05-08T17:36:12.811Z,21.35
2018-05-08T17:38:38.707Z,22.53
2018-05-08T17:41:07.812Z,22.53
2018-05-08T17:43:33.709Z,22.84
2018-05-08T17:45:59.601Z,22.53
2018-05-08T17:48:25.495Z,23.03
2018-05-08T17:50:51.416Z,23.17
2018-05-08T17:53:17.321Z,23.71
2018-05-08T17:55:43.223Z,23.79
2018-05-08T17:58:09.120Z,24.04
2018-05-08T18:00:35.017Z,23.90
2018-05-08T18:03:00.953Z,24.73
2018-05-08T18:05:26.843Z,24.25
2018-05-08T18:07:52.711Z,24.20
2018-05-08T18:10:18.789Z,24.17
2018-05-08T18:12:44.679Z,24.62
2018-05-08T18:15:10.618Z,24.67
2018-05-08T18:17:36.668Z,24.74
2018-05-08T18:20:02.569Z,24.61
2018-05-08T18:22:28.469Z,25.07
2018-05-08T18:24:54.390Z,25.50
2018-05-08T18:27:20.337Z,26.35
2018-05-08T18:29:46.260Z,26.28
2018-05-08T18:32:12.348Z,26.54
2018-05-08T18:34:38.297Z,26.91
2018-05-08T18:37:04.245Z,27.19
2018-05-08T18:42:01.356Z,27.41
2018-05-08T18:44:30.746Z,26.81
2018-05-08T18:46:56.847Z,27.49
2018-05-08T18:49:23.467Z,28.17
2018-05-08T18:51:49.363Z,28.57
2018-05-08T18:54:15.335Z,28.47
2018-05-08T18:56:41.262Z,28.76
2018-05-08T18:59:07.192Z,28.76
2018-05-08T19:01:34.931Z,28.85
2018-05-08T19:04:00.884Z,28.82
2018-05-08T19:06:30.066Z,29.18
2018-05-08T19:08:55.959Z,29.55
2018-05-08T19:14:16.450Z,29.45
2018-05-08T19:16:42.440Z,29.07
2018-05-08T19:19:14.342Z,29.27
2018-05-08T19:21:40.320Z,29.82
2018-05-08T19:24:12.242Z,30.19
2018-05-08T19:26:38.254Z,30.23
2018-05-08T19:29:10.236Z,29.89
2018-05-08T19:31:36.219Z,30.22
2018-05-08T19:34:02.196Z,29.61
2018-05-08T19:36:34.195Z,29.93
2018-05-08T19:39:00.160Z,30.13
2018-05-08T19:41:26.120Z,30.58
2018-05-08T19:43:52.147Z,30.48
2018-05-08T19:46:18.109Z,30.60
2018-05-08T19:48:44.060Z,30.50
2018-05-08T19:51:10.030Z,30.94
2018-05-08T19:53:35.918Z,30.95
2018-05-08T19:56:01.878Z,31.58
2018-05-08T19:58:27.813Z,31.79
2018-05-08T20:00:53.764Z,32.42
2018-05-08T20:03:19.769Z,32.46
2018-05-08T20:05:45.804Z,33.03
2018-05-08T20:08:11.762Z,32.92
2018-05-08T20:10:37.692Z,32.78
2018-05-08T20:13:03.653Z,33.12
2018-05-08T20:15:29.614Z,32.93
2018-05-08T20:17:55.568Z,33.04
2018-05-08T20:20:21.578Z,32.77
2018-05-08T20:22:47.536Z,32.76
2018-05-08T20:25:13.495Z,33.25
2018-05-08T20:27:39.477Z,33.30
2018-05-08T20:30:05.472Z,33.99
2018-05-08T20:32:31.421Z,34.44
2018-05-08T20:34:57.560Z,34.53
2018-05-08T20:37:23.523Z,34.97
2018-05-08T20:39:49.480Z,35.58
2018-05-08T20:42:15.436Z,36.35
2018-05-08T20:44:41.449Z,35.78
2018-05-08T20:47:07.446Z,35.39
2018-05-08T20:49:33.399Z,36.56
2018-05-08T20:51:59.412Z,36.49
2018-05-08T20:54:25.349Z,37.41
2018-05-08T20:56:51.328Z,37.73
2018-05-08T20:59:17.288Z,38.18
2018-05-08T21:01:43.322Z,38.41
2018-05-08T21:04:09.216Z,39.20
2018-05-08T21:06:35.142Z,40.13
2018-05-08T21:09:01.127Z,40.57
2018-05-08T21:11:30.028Z,41.13
2018-05-08T21:13:56.023Z,41.89
2018-05-08T21:16:25.404Z,41.84
2018-05-08T21:18:51.424Z,41.69
2018-05-08T21:21:17.373Z,41.37
2018-05-08T21:23:43.347Z,40.87
2018-05-08T21:26:09.278Z,41.65
2018-05-08T21:28:41.904Z,41.42
2018-05-08T21:31:13.888Z,41.98
2018-05-08T21:33:39.840Z,41.90
2018-05-08T21:36:05.848Z,42.62
2018-05-08T21:38:31.825Z,42.95
2018-05-08T21:40:57.928Z,43.51
2018-05-08T21:43:23.872Z,44.16
2018-05-08T21:45:49.918Z,44.20
2018-05-08T21:48:15.877Z,44.12
2018-05-08T21:50:41.879Z,44.44
2018-05-08T21:53:09.767Z,44.64
2018-05-08T21:55:35.728Z,44.21
2018-05-08T21:58:01.733Z,44.42
2018-05-08T22:00:27.730Z,44.63
2018-05-08T22:02:53.635Z,44.88
2018-05-08T22:05:21.617Z,44.27
2018-05-08T22:07:47.537Z,43.65
2018-05-08T22:10:16.655Z,43.44
2018-05-08T22:12:42.594Z,43.64
2018-05-08T22:15:12.424Z,43.60
2018-05-08T22:17:38.388Z,43.95
2018-05-08T22:20:05.784Z,44.00
2018-05-08T22:22:31.827Z,44.02
2018-05-08T22:25:00.580Z,44.15
2018-05-08T22:27:26.491Z,43.82
2018-05-08T22:29:55.448Z,43.84
2018-05-08T22:32:21.432Z,44.08
2018-05-08T22:34:47.406Z,44.05
2018-05-08T22:37:13.351Z,44.23
2018-05-08T22:39:39.293Z,44.84
2018-05-08T22:42:06.539Z,45.09
2018-05-08T22:44:32.468Z,45.70
2018-05-08T22:47:02.046Z,46.31
2018-05-08T22:49:27.956Z,46.69
2018-05-08T22:51:57.409Z,46.89
2018-05-08T22:54:23.359Z,46.32
2018-05-08T22:56:50.627Z,46.48
2018-05-08T22:59:16.580Z,46.48
2018-05-08T23:01:45.944Z,47.12
2018-05-08T23:04:11.880Z,47.10
2018-05-08T23:06:41.076Z,46.36
2018-05-08T23:09:07.078Z,46.04
2018-05-08T23:11:33.020Z,45.97
2018-05-08T23:13:59.039Z,46.29
2018-05-08T23:16:24.959Z,46.23
2018-05-08T23:18:52.323Z,46.59
2018-05-08T23:21:18.272Z,46.60
2018-05-08T23:23:47.570Z,46.95
2018-05-08T23:26:13.522Z,46.88
2018-05-08T23:28:42.986Z,47.15
2018-05-08T23:31:08.940Z,46.90
2018-05-08T23:33:36.097Z,46.82
2018-05-08T23:36:02.037Z,46.94
2018-05-08T23:38:31.587Z,46.25
2018-05-08T23:40:57.513Z,46.55
2018-05-08T23:43:30.899Z,47.93
2018-05-08T23:45:56.861Z,48.59
2018-05-08T23:48:22.795Z,49.30
2018-05-08T23:50:48.752Z,50.19
2018-05-08T23:53:14.703Z,50.38
2018-05-08T23:55:40.635Z,50.18
2018-05-08T23:58:06.628Z,49.90
